Oakland County International Airport
KPTK : now visible

Airfield :











YOU CAN JOIN US ON...

 
LOGIN :

Register | Disclaimer

   EN    FR    IT 

 









Legend :    VFR   Marginal VFR   IFR   Intensive IFR   Very Intensive IFR
Visi :
Ceiling :
>= 8 km
>= 3000ft
5 to 8 km
1000 to 3000 ft
1500m to 5 km
500 to 1000 ft
800 to 1500m
200 to 500 ft
< 800m
< 200 ft
Symbols :   Thunderstorms  Fog  Heavy snow  Heavy precipitations  Wind > 20 kt






- Airport Elevation : 980 ft


KPTK - Oakland County International

CURRENT METAR :
  • 150753Z AUTO 27015G24KT 8SM OVC012 M02/M05 A2973 RMK AO2 SLP077 T10171050

EXPIRED METARs :
  • 150653Z AUTO 27016KT 6SM HZ OVC012 M02/M05 A2970 RMK AO2 PK WND 27028/0625 SLP065 T10171050
  • 150553Z AUTO 29021G29KT 7SM OVC012 M02/M04 A2968 RMK AO2 PK WND 28029/0545 UPB37E46SNE01 SLP058 P0000 60000 I6000 T10171039 10006 21017 53019

TAF KPTK
Valid from the 15 at 06:00 until the 16 at 06:00 UTC


150527Z 1506/1606 28012KT P6SM BKN015 OVC025
TEMPO 1509/1513 3SM -SHSN SCT008 BKN015
FM151300 27012KT P6SM SCT015 BKN025
FM151800 26010KT P6SM BKN035
FM160100 24006KT P6SM SCT030 BKN250



MET'MAP, your aeronautical weather chart ! - Copyright ORBIFLY December 2007 - Disclaimer

ORBIFLY MET'MAP TEAM :

Programming & Development : Alexandra Zaïnal
Concept & original design : Baudouin d'Aumeries
Assistance for programming : Marc-Olivier Méhu
Technical & hardware support : Manuel Goepfert

Contact : metmap@orbifly.com




SOURCES & CREDITS :

   NOAA       Earth
Advisory